sensor_id;sensor_type;location;lat;lon;timestamp;temperature;humidity
25741;DHT22;13592;50.838;4.412;2023-02-02T00:01:30;10.40;99.90
25741;DHT22;13592;50.838;4.412;2023-02-02T00:03:56;10.50;99.90
25741;DHT22;13592;50.838;4.412;2023-02-02T00:06:35;10.40;99.90
25741;DHT22;13592;50.838;4.412;2023-02-02T00:09:01;10.30;99.90
25741;DHT22;13592;50.838;4.412;2023-02-02T00:11:28;10.30;99.90
25741;DHT22;13592;50.838;4.412;2023-02-02T00:13:57;10.30;99.90
25741;DHT22;13592;50.838;4.412;2023-02-02T00:18:52;10.40;99.90
25741;DHT22;13592;50.838;4.412;2023-02-02T00:21:24;10.40;99.90
25741;DHT22;13592;50.838;4.412;2023-02-02T00:23:52;10.30;99.90
25741;DHT22;13592;50.838;4.412;2023-02-02T00:26:21;10.40;99.90
25741;DHT22;13592;50.838;4.412;2023-02-02T00:28:49;10.50;99.90
25741;DHT22;13592;50.838;4.412;2023-02-02T00:31:14;10.40;99.90
25741;DHT22;13592;50.838;4.412;2023-02-02T00:33:43;10.30;99.90
25741;DHT22;13592;50.838;4.412;2023-02-02T00:36:09;10.40;99.90
25741;DHT22;13592;50.838;4.412;2023-02-02T00:38:37;10.40;99.90
25741;DHT22;13592;50.838;4.412;2023-02-02T00:41:03;10.50;99.90
25741;DHT22;13592;50.838;4.412;2023-02-02T00:43:31;10.40;99.90
25741;DHT22;13592;50.838;4.412;2023-02-02T00:45:57;10.30;99.90
25741;DHT22;13592;50.838;4.412;2023-02-02T00:48:23;10.30;99.90
25741;DHT22;13592;50.838;4.412;2023-02-02T00:50:51;10.30;99.90
25741;DHT22;13592;50.838;4.412;2023-02-02T00:53:17;10.30;99.90
25741;DHT22;13592;50.838;4.412;2023-02-02T00:55:45;10.40;99.90
25741;DHT22;13592;50.838;4.412;2023-02-02T00:58:10;10.40;99.90
25741;DHT22;13592;50.838;4.412;2023-02-02T01:00:36;10.40;99.90
25741;DHT22;13592;50.838;4.412;2023-02-02T01:03:05;10.50;99.90
25741;DHT22;13592;50.838;4.412;2023-02-02T01:08:02;10.40;99.90
25741;DHT22;13592;50.838;4.412;2023-02-02T01:10:29;10.30;99.90
25741;DHT22;13592;50.838;4.412;2023-02-02T01:12:58;10.10;99.90
25741;DHT22;13592;50.838;4.412;2023-02-02T01:15:26;10.10;99.90
25741;DHT22;13592;50.838;4.412;2023-02-02T01:17:57;10.20;99.90
25741;DHT22;13592;50.838;4.412;2023-02-02T01:20:23;10.40;99.90
25741;DHT22;13592;50.838;4.412;2023-02-02T01:22:48;10.40;99.90
25741;DHT22;13592;50.838;4.412;2023-02-02T01:25:15;10.40;99.90
25741;DHT22;13592;50.838;4.412;2023-02-02T01:27:41;10.30;99.90
25741;DHT22;13592;50.838;4.412;2023-02-02T01:32:35;10.30;99.90
25741;DHT22;13592;50.838;4.412;2023-02-02T01:35:05;10.30;99.90
25741;DHT22;13592;50.838;4.412;2023-02-02T01:37:33;10.40;99.90
25741;DHT22;13592;50.838;4.412;2023-02-02T01:42:38;10.40;99.90
25741;DHT22;13592;50.838;4.412;2023-02-02T01:45:18;10.30;99.90
25741;DHT22;13592;50.838;4.412;2023-02-02T01:47:47;10.30;99.90
25741;DHT22;13592;50.838;4.412;2023-02-02T01:50:16;10.40;99.90
25741;DHT22;13592;50.838;4.412;2023-02-02T01:52:42;10.60;99.90
25741;DHT22;13592;50.838;4.412;2023-02-02T01:55:10;10.40;99.90
25741;DHT22;13592;50.838;4.412;2023-02-02T01:57:38;10.40;99.90
25741;DHT22;13592;50.838;4.412;2023-02-02T02:00:10;10.60;99.90
25741;DHT22;13592;50.838;4.412;2023-02-02T02:05:05;10.50;99.90
25741;DHT22;13592;50.838;4.412;2023-02-02T02:07:34;10.50;99.90
25741;DHT22;13592;50.838;4.412;2023-02-02T02:10:00;10.50;99.90
25741;DHT22;13592;50.838;4.412;2023-02-02T02:12:25;10.60;99.90
25741;DHT22;13592;50.838;4.412;2023-02-02T02:14:59;10.50;99.90
25741;DHT22;13592;50.838;4.412;2023-02-02T02:40:21;10.30;99.90
25741;DHT22;13592;50.838;4.412;2023-02-02T02:43:00;10.30;99.90
25741;DHT22;13592;50.838;4.412;2023-02-02T02:45:29;10.30;99.90
25741;DHT22;13592;50.838;4.412;2023-02-02T02:47:58;10.30;99.90
25741;DHT22;13592;50.838;4.412;2023-02-02T02:50:24;10.20;99.90
25741;DHT22;13592;50.838;4.412;2023-02-02T02:52:55;10.10;99.90
25741;DHT22;13592;50.838;4.412;2023-02-02T02:55:24;10.20;99.90
25741;DHT22;13592;50.838;4.412;2023-02-02T03:07:03;10.40;99.90
25741;DHT22;13592;50.838;4.412;2023-02-02T03:12:01;10.40;99.90
25741;DHT22;13592;50.838;4.412;2023-02-02T03:14:27;10.40;99.90
25741;DHT22;13592;50.838;4.412;2023-02-02T03:16:55;10.40;99.90
25741;DHT22;13592;50.838;4.412;2023-02-02T03:21:51;10.40;99.90
25741;DHT22;13592;50.838;4.412;2023-02-02T03:24:17;10.50;99.90
25741;DHT22;13592;50.838;4.412;2023-02-02T03:26:43;10.20;99.90
25741;DHT22;13592;50.838;4.412;2023-02-02T03:29:09;10.30;99.90
25741;DHT22;13592;50.838;4.412;2023-02-02T03:31:35;10.10;99.90
25741;DHT22;13592;50.838;4.412;2023-02-02T03:34:01;10.20;99.90
25741;DHT22;13592;50.838;4.412;2023-02-02T03:36:28;10.20;99.90
25741;DHT22;13592;50.838;4.412;2023-02-02T03:41:53;10.20;99.90
25741;DHT22;13592;50.838;4.412;2023-02-02T03:44:18;10.10;99.90
25741;DHT22;13592;50.838;4.412;2023-02-02T03:46:47;10.10;99.90
25741;DHT22;13592;50.838;4.412;2023-02-02T03:49:15;10.20;99.90
25741;DHT22;13592;50.838;4.412;2023-02-02T03:51:43;10.20;99.90
25741;DHT22;13592;50.838;4.412;2023-02-02T03:54:10;10.10;99.90
25741;DHT22;13592;50.838;4.412;2023-02-02T03:56:37;10.10;99.90
25741;DHT22;13592;50.838;4.412;2023-02-02T03:59:03;10.00;99.90
25741;DHT22;13592;50.838;4.412;2023-02-02T04:01:29;10.20;99.90
25741;DHT22;13592;50.838;4.412;2023-02-02T04:03:55;10.20;99.90
25741;DHT22;13592;50.838;4.412;2023-02-02T04:06:21;10.20;99.90
25741;DHT22;13592;50.838;4.412;2023-02-02T04:08:50;10.20;99.90
25741;DHT22;13592;50.838;4.412;2023-02-02T04:11:17;10.20;99.90
25741;DHT22;13592;50.838;4.412;2023-02-02T04:13:45;10.20;99.90
25741;DHT22;13592;50.838;4.412;2023-02-02T04:16:16;10.20;99.90
25741;DHT22;13592;50.838;4.412;2023-02-02T04:21:15;10.10;99.90
25741;DHT22;13592;50.838;4.412;2023-02-02T04:23:40;10.10;99.90
25741;DHT22;13592;50.838;4.412;2023-02-02T04:28:37;10.30;99.90
25741;DHT22;13592;50.838;4.412;2023-02-02T04:31:08;10.30;99.90
25741;DHT22;13592;50.838;4.412;2023-02-02T04:36:05;10.20;99.90
25741;DHT22;13592;50.838;4.412;2023-02-02T04:41:25;10.10;99.90
25741;DHT22;13592;50.838;4.412;2023-02-02T04:43:56;10.30;99.90
25741;DHT22;13592;50.838;4.412;2023-02-02T04:46:23;10.30;99.90
25741;DHT22;13592;50.838;4.412;2023-02-02T04:48:49;10.20;99.90
25741;DHT22;13592;50.838;4.412;2023-02-02T04:51:18;10.20;99.90
25741;DHT22;13592;50.838;4.412;2023-02-02T04:53:47;10.10;99.90
25741;DHT22;13592;50.838;4.412;2023-02-02T04:56:16;9.90;99.90
25741;DHT22;13592;50.838;4.412;2023-02-02T04:58:45;9.90;99.90
25741;DHT22;13592;50.838;4.412;2023-02-02T05:01:13;10.10;99.90
25741;DHT22;13592;50.838;4.412;2023-02-02T05:03:42;10.00;99.90
25741;DHT22;13592;50.838;4.412;2023-02-02T05:06:11;10.00;99.90
25741;DHT22;13592;50.838;4.412;2023-02-02T05:11:28;10.00;99.90
25741;DHT22;13592;50.838;4.412;2023-02-02T05:13:55;10.10;99.90
25741;DHT22;13592;50.838;4.412;2023-02-02T05:16:22;10.10;99.90
25741;DHT22;13592;50.838;4.412;2023-02-02T05:18:54;9.90;99.90
25741;DHT22;13592;50.838;4.412;2023-02-02T05:21:24;9.90;99.90
25741;DHT22;13592;50.838;4.412;2023-02-02T05:23:57;9.80;99.90
25741;DHT22;13592;50.838;4.412;2023-02-02T05:26:28;9.60;99.90
25741;DHT22;13592;50.838;4.412;2023-02-02T05:28:55;9.60;99.90
25741;DHT22;13592;50.838;4.412;2023-02-02T05:31:24;9.80;99.90
25741;DHT22;13592;50.838;4.412;2023-02-02T05:33:50;9.80;99.90
25741;DHT22;13592;50.838;4.412;2023-02-02T05:36:16;9.90;99.90
25741;DHT22;13592;50.838;4.412;2023-02-02T05:38:44;9.90;99.90
25741;DHT22;13592;50.838;4.412;2023-02-02T05:41:11;9.90;99.90
25741;DHT22;13592;50.838;4.412;2023-02-02T05:43:36;9.90;99.90
25741;DHT22;13592;50.838;4.412;2023-02-02T05:48:49;9.80;99.90
25741;DHT22;13592;50.838;4.412;2023-02-02T05:51:15;9.50;99.90
25741;DHT22;13592;50.838;4.412;2023-02-02T05:54:04;9.70;99.90
25741;DHT22;13592;50.838;4.412;2023-02-02T05:56:29;9.60;99.90
25741;DHT22;13592;50.838;4.412;2023-02-02T05:58:56;9.70;99.90
25741;DHT22;13592;50.838;4.412;2023-02-02T06:03:50;9.70;99.90
25741;DHT22;13592;50.838;4.412;2023-02-02T06:06:16;9.80;99.90
25741;DHT22;13592;50.838;4.412;2023-02-02T06:08:42;9.70;99.90
25741;DHT22;13592;50.838;4.412;2023-02-02T06:11:15;9.70;99.90
25741;DHT22;13592;50.838;4.412;2023-02-02T06:13:41;9.60;99.90
25741;DHT22;13592;50.838;4.412;2023-02-02T06:16:08;9.50;99.90
25741;DHT22;13592;50.838;4.412;2023-02-02T06:18:39;9.70;99.90
25741;DHT22;13592;50.838;4.412;2023-02-02T06:21:05;9.80;99.90
25741;DHT22;13592;50.838;4.412;2023-02-02T06:23:31;9.80;99.90
25741;DHT22;13592;50.838;4.412;2023-02-02T06:25:57;9.70;99.90
25741;DHT22;13592;50.838;4.412;2023-02-02T06:28:23;9.60;99.90
25741;DHT22;13592;50.838;4.412;2023-02-02T06:30:54;9.60;99.90
25741;DHT22;13592;50.838;4.412;2023-02-02T06:33:23;9.60;99.90
25741;DHT22;13592;50.838;4.412;2023-02-02T06:35:52;9.60;99.90
25741;DHT22;13592;50.838;4.412;2023-02-02T06:40:49;9.50;99.90
25741;DHT22;13592;50.838;4.412;2023-02-02T06:43:15;9.30;99.90
25741;DHT22;13592;50.838;4.412;2023-02-02T06:45:41;9.40;99.90
25741;DHT22;13592;50.838;4.412;2023-02-02T06:48:10;9.50;99.90
25741;DHT22;13592;50.838;4.412;2023-02-02T06:50:36;9.60;99.90
25741;DHT22;13592;50.838;4.412;2023-02-02T06:53:04;9.60;99.90
25741;DHT22;13592;50.838;4.412;2023-02-02T06:55:30;9.60;99.90
25741;DHT22;13592;50.838;4.412;2023-02-02T06:57:56;9.30;99.90
25741;DHT22;13592;50.838;4.412;2023-02-02T07:00:22;9.30;99.90
25741;DHT22;13592;50.838;4.412;2023-02-02T07:05:16;9.40;99.90
25741;DHT22;13592;50.838;4.412;2023-02-02T07:07:44;9.50;99.90
25741;DHT22;13592;50.838;4.412;2023-02-02T07:12:43;9.50;99.90
25741;DHT22;13592;50.838;4.412;2023-02-02T07:15:12;9.40;99.90
25741;DHT22;13592;50.838;4.412;2023-02-02T07:17:39;9.40;99.90
25741;DHT22;13592;50.838;4.412;2023-02-02T07:22:34;9.50;99.90
25741;DHT22;13592;50.838;4.412;2023-02-02T07:24:59;9.40;99.90
25741;DHT22;13592;50.838;4.412;2023-02-02T07:27:25;9.50;99.90
25741;DHT22;13592;50.838;4.412;2023-02-02T07:29:50;9.50;99.90
25741;DHT22;13592;50.838;4.412;2023-02-02T07:32:16;9.60;99.90
25741;DHT22;13592;50.838;4.412;2023-02-02T07:34:45;9.60;99.90
25741;DHT22;13592;50.838;4.412;2023-02-02T07:37:17;9.70;99.90
25741;DHT22;13592;50.838;4.412;2023-02-02T07:40:01;9.80;99.90
25741;DHT22;13592;50.838;4.412;2023-02-02T07:42:29;9.60;99.90
25741;DHT22;13592;50.838;4.412;2023-02-02T07:44:55;9.50;99.90
25741;DHT22;13592;50.838;4.412;2023-02-02T07:47:21;9.50;99.90
25741;DHT22;13592;50.838;4.412;2023-02-02T07:49:49;9.50;99.90
25741;DHT22;13592;50.838;4.412;2023-02-02T07:52:14;9.40;99.90
25741;DHT22;13592;50.838;4.412;2023-02-02T07:54:41;9.50;99.90
25741;DHT22;13592;50.838;4.412;2023-02-02T07:57:06;9.60;99.90
25741;DHT22;13592;50.838;4.412;2023-02-02T08:02:24;9.70;99.90
25741;DHT22;13592;50.838;4.412;2023-02-02T08:04:56;9.60;99.90
25741;DHT22;13592;50.838;4.412;2023-02-02T08:07:24;9.70;99.90
25741;DHT22;13592;50.838;4.412;2023-02-02T08:09:52;9.60;99.90
25741;DHT22;13592;50.838;4.412;2023-02-02T08:12:21;9.70;99.90
25741;DHT22;13592;50.838;4.412;2023-02-02T08:14:52;9.80;99.90
25741;DHT22;13592;50.838;4.412;2023-02-02T08:17:30;9.80;99.90
25741;DHT22;13592;50.838;4.412;2023-02-02T08:19:57;9.80;99.90
25741;DHT22;13592;50.838;4.412;2023-02-02T08:22:23;9.80;99.90
25741;DHT22;13592;50.838;4.412;2023-02-02T08:24:50;9.70;99.90
25741;DHT22;13592;50.838;4.412;2023-02-02T08:27:18;9.70;99.90
25741;DHT22;13592;50.838;4.412;2023-02-02T08:29:44;9.80;99.90
25741;DHT22;13592;50.838;4.412;2023-02-02T08:32:11;9.80;99.90
25741;DHT22;13592;50.838;4.412;2023-02-02T08:34:42;9.80;99.90
25741;DHT22;13592;50.838;4.412;2023-02-02T08:37:08;9.90;99.90
25741;DHT22;13592;50.838;4.412;2023-02-02T08:39:40;9.80;99.90
25741;DHT22;13592;50.838;4.412;2023-02-02T08:42:08;9.90;99.90
25741;DHT22;13592;50.838;4.412;2023-02-02T08:45:16;9.70;99.90
25741;DHT22;13592;50.838;4.412;2023-02-02T08:47:37;9.70;99.90
25741;DHT22;13592;50.838;4.412;2023-02-02T08:50:04;9.70;99.90
25741;DHT22;13592;50.838;4.412;2023-02-02T08:52:31;9.80;99.90
25741;DHT22;13592;50.838;4.412;2023-02-02T08:55:00;9.90;99.90
25741;DHT22;13592;50.838;4.412;2023-02-02T08:57:26;10.10;99.90
25741;DHT22;13592;50.838;4.412;2023-02-02T08:59:59;10.10;99.90
25741;DHT22;13592;50.838;4.412;2023-02-02T09:02:24;10.10;99.90
25741;DHT22;13592;50.838;4.412;2023-02-02T09:04:50;10.20;99.90
25741;DHT22;13592;50.838;4.412;2023-02-02T09:09:45;10.20;99.90
25741;DHT22;13592;50.838;4.412;2023-02-02T09:12:12;10.20;99.90
25741;DHT22;13592;50.838;4.412;2023-02-02T09:14:43;10.20;99.90
25741;DHT22;13592;50.838;4.412;2023-02-02T09:22:07;10.40;99.90
25741;DHT22;13592;50.838;4.412;2023-02-02T09:24:33;10.50;99.90
25741;DHT22;13592;50.838;4.412;2023-02-02T09:26:58;10.30;99.90
25741;DHT22;13592;50.838;4.412;2023-02-02T09:29:26;10.40;99.90
25741;DHT22;13592;50.838;4.412;2023-02-02T09:31:55;10.50;99.90
25741;DHT22;13592;50.838;4.412;2023-02-02T09:34:27;10.60;99.90
25741;DHT22;13592;50.838;4.412;2023-02-02T09:36:55;10.70;99.90
25741;DHT22;13592;50.838;4.412;2023-02-02T09:41:56;10.90;99.90
25741;DHT22;13592;50.838;4.412;2023-02-02T09:47:15;10.90;99.90
25741;DHT22;13592;50.838;4.412;2023-02-02T09:49:47;11.00;99.90
25741;DHT22;13592;50.838;4.412;2023-02-02T09:52:24;10.90;99.90
25741;DHT22;13592;50.838;4.412;2023-02-02T09:54:51;11.20;99.90
25741;DHT22;13592;50.838;4.412;2023-02-02T09:57:24;11.20;99.90
25741;DHT22;13592;50.838;4.412;2023-02-02T09:59:53;11.30;99.90
25741;DHT22;13592;50.838;4.412;2023-02-02T10:02:38;11.30;99.90
25741;DHT22;13592;50.838;4.412;2023-02-02T10:05:12;11.40;99.90
25741;DHT22;13592;50.838;4.412;2023-02-02T10:07:40;11.60;99.90
25741;DHT22;13592;50.838;4.412;2023-02-02T10:10:13;11.70;99.90
25741;DHT22;13592;50.838;4.412;2023-02-02T10:12:43;11.70;99.90
25741;DHT22;13592;50.838;4.412;2023-02-02T10:23:37;11.40;99.90
25741;DHT22;13592;50.838;4.412;2023-02-02T10:28:43;11.60;99.90
25741;DHT22;13592;50.838;4.412;2023-02-02T10:31:17;11.60;99.90
25741;DHT22;13592;50.838;4.412;2023-02-02T10:33:51;11.60;99.90
25741;DHT22;13592;50.838;4.412;2023-02-02T10:36:27;11.70;99.90
25741;DHT22;13592;50.838;4.412;2023-02-02T10:39:19;11.80;99.90
25741;DHT22;13592;50.838;4.412;2023-02-02T10:41:52;11.90;99.90
25741;DHT22;13592;50.838;4.412;2023-02-02T10:44:39;11.80;99.90
25741;DHT22;13592;50.838;4.412;2023-02-02T10:47:08;11.80;99.90
25741;DHT22;13592;50.838;4.412;2023-02-02T10:49:38;11.90;99.90
25741;DHT22;13592;50.838;4.412;2023-02-02T10:54:46;12.10;99.90
25741;DHT22;13592;50.838;4.412;2023-02-02T10:57:33;12.20;99.90
25741;DHT22;13592;50.838;4.412;2023-02-02T11:00:20;12.30;99.90
25741;DHT22;13592;50.838;4.412;2023-02-02T11:02:46;12.20;99.90
25741;DHT22;13592;50.838;4.412;2023-02-02T11:05:13;12.00;99.90
25741;DHT22;13592;50.838;4.412;2023-02-02T11:08:19;11.90;99.90
25741;DHT22;13592;50.838;4.412;2023-02-02T11:13:18;12.00;99.90
25741;DHT22;13592;50.838;4.412;2023-02-02T11:15:49;12.00;99.90
25741;DHT22;13592;50.838;4.412;2023-02-02T11:18:30;12.00;99.90
25741;DHT22;13592;50.838;4.412;2023-02-02T11:20:56;12.30;99.90
25741;DHT22;13592;50.838;4.412;2023-02-02T11:26:01;12.10;99.90
25741;DHT22;13592;50.838;4.412;2023-02-02T11:28:32;12.10;99.90
25741;DHT22;13592;50.838;4.412;2023-02-02T11:31:00;12.30;99.90
25741;DHT22;13592;50.838;4.412;2023-02-02T11:33:33;12.30;99.90
25741;DHT22;13592;50.838;4.412;2023-02-02T11:38:28;12.30;99.90
25741;DHT22;13592;50.838;4.412;2023-02-02T11:40:58;12.50;99.90
25741;DHT22;13592;50.838;4.412;2023-02-02T11:43:47;12.50;99.90
25741;DHT22;13592;50.838;4.412;2023-02-02T11:46:19;12.40;99.90
25741;DHT22;13592;50.838;4.412;2023-02-02T11:49:02;12.50;99.90
25741;DHT22;13592;50.838;4.412;2023-02-02T11:51:31;12.50;99.90
25741;DHT22;13592;50.838;4.412;2023-02-02T11:58:56;12.10;99.90
25741;DHT22;13592;50.838;4.412;2023-02-02T12:01:42;11.90;99.90
25741;DHT22;13592;50.838;4.412;2023-02-02T12:04:29;11.90;99.90
25741;DHT22;13592;50.838;4.412;2023-02-02T12:06:54;11.80;99.90
25741;DHT22;13592;50.838;4.412;2023-02-02T12:09:20;11.80;99.90
25741;DHT22;13592;50.838;4.412;2023-02-02T12:17:06;12.10;99.90
25741;DHT22;13592;50.838;4.412;2023-02-02T12:19:54;12.00;99.90
25741;DHT22;13592;50.838;4.412;2023-02-02T12:22:28;11.90;99.90
25741;DHT22;13592;50.838;4.412;2023-02-02T12:25:01;12.00;99.90
25741;DHT22;13592;50.838;4.412;2023-02-02T12:32:43;11.90;99.90
25741;DHT22;13592;50.838;4.412;2023-02-02T12:38:02;11.90;99.90
25741;DHT22;13592;50.838;4.412;2023-02-02T12:43:38;11.90;99.90
25741;DHT22;13592;50.838;4.412;2023-02-02T12:51:29;12.00;99.90
25741;DHT22;13592;50.838;4.412;2023-02-02T12:54:08;12.10;99.90
25741;DHT22;13592;50.838;4.412;2023-02-02T13:12:17;12.10;99.90
25741;DHT22;13592;50.838;4.412;2023-02-02T13:14:48;12.20;99.90
25741;DHT22;13592;50.838;4.412;2023-02-02T13:17:22;12.20;99.90
25741;DHT22;13592;50.838;4.412;2023-02-02T13:19:50;12.10;99.90
25741;DHT22;13592;50.838;4.412;2023-02-02T13:22:21;12.10;99.90
25741;DHT22;13592;50.838;4.412;2023-02-02T13:24:51;12.30;99.90
25741;DHT22;13592;50.838;4.412;2023-02-02T13:27:18;12.30;99.90
25741;DHT22;13592;50.838;4.412;2023-02-02T13:29:55;12.30;99.90
25741;DHT22;13592;50.838;4.412;2023-02-02T13:34:52;12.10;99.90
25741;DHT22;13592;50.838;4.412;2023-02-02T13:47:58;12.20;99.90
25741;DHT22;13592;50.838;4.412;2023-02-02T13:50:29;12.20;99.90
25741;DHT22;13592;50.838;4.412;2023-02-02T13:53:04;12.20;99.90
25741;DHT22;13592;50.838;4.412;2023-02-02T13:55:42;12.10;99.90
25741;DHT22;13592;50.838;4.412;2023-02-02T14:00:53;12.00;99.90
25741;DHT22;13592;50.838;4.412;2023-02-02T14:03:42;11.90;99.90
25741;DHT22;13592;50.838;4.412;2023-02-02T14:06:26;12.00;99.90
25741;DHT22;13592;50.838;4.412;2023-02-02T14:09:16;12.00;99.90
25741;DHT22;13592;50.838;4.412;2023-02-02T14:14:16;12.60;99.90
25741;DHT22;13592;50.838;4.412;2023-02-02T14:17:50;12.60;99.90
25741;DHT22;13592;50.838;4.412;2023-02-02T14:19:53;12.50;99.90
25741;DHT22;13592;50.838;4.412;2023-02-02T14:24:49;12.40;99.90
25741;DHT22;13592;50.838;4.412;2023-02-02T14:29:57;12.20;99.90
25741;DHT22;13592;50.838;4.412;2023-02-02T14:34:54;12.20;99.90
25741;DHT22;13592;50.838;4.412;2023-02-02T14:42:46;12.30;99.90
25741;DHT22;13592;50.838;4.412;2023-02-02T14:45:33;12.30;99.90
25741;DHT22;13592;50.838;4.412;2023-02-02T14:58:28;12.20;99.90
25741;DHT22;13592;50.838;4.412;2023-02-02T15:00:57;11.90;99.90
25741;DHT22;13592;50.838;4.412;2023-02-02T15:06:12;11.90;99.90
25741;DHT22;13592;50.838;4.412;2023-02-02T15:08:42;11.90;99.90
25741;DHT22;13592;50.838;4.412;2023-02-02T15:11:07;12.00;99.90
25741;DHT22;13592;50.838;4.412;2023-02-02T15:13:56;12.00;99.90
25741;DHT22;13592;50.838;4.412;2023-02-02T15:16:28;11.90;99.90
25741;DHT22;13592;50.838;4.412;2023-02-02T15:19:15;11.90;99.90
25741;DHT22;13592;50.838;4.412;2023-02-02T15:22:11;11.90;99.90
25741;DHT22;13592;50.838;4.412;2023-02-02T15:24:41;11.90;99.90
25741;DHT22;13592;50.838;4.412;2023-02-02T15:27:13;11.70;99.90
25741;DHT22;13592;50.838;4.412;2023-02-02T15:29:43;11.90;99.90
25741;DHT22;13592;50.838;4.412;2023-02-02T15:32:28;11.90;99.90
25741;DHT22;13592;50.838;4.412;2023-02-02T15:34:58;11.80;99.90
25741;DHT22;13592;50.838;4.412;2023-02-02T15:37:28;11.70;99.90
25741;DHT22;13592;50.838;4.412;2023-02-02T15:39:55;11.70;99.90
25741;DHT22;13592;50.838;4.412;2023-02-02T15:42:23;11.70;99.90
25741;DHT22;13592;50.838;4.412;2023-02-02T15:47:57;11.70;99.90
25741;DHT22;13592;50.838;4.412;2023-02-02T15:50:23;11.80;99.90
25741;DHT22;13592;50.838;4.412;2023-02-02T15:52:49;12.00;99.90
25741;DHT22;13592;50.838;4.412;2023-02-02T15:57:44;11.80;99.90
25741;DHT22;13592;50.838;4.412;2023-02-02T16:02:49;11.80;99.90
25741;DHT22;13592;50.838;4.412;2023-02-02T16:05:37;11.80;99.90
25741;DHT22;13592;50.838;4.412;2023-02-02T16:08:12;11.90;99.90
25741;DHT22;13592;50.838;4.412;2023-02-02T16:10:39;11.70;99.90
25741;DHT22;13592;50.838;4.412;2023-02-02T16:13:04;11.80;99.90
25741;DHT22;13592;50.838;4.412;2023-02-02T16:15:30;11.70;99.90
25741;DHT22;13592;50.838;4.412;2023-02-02T16:18:09;11.60;99.90
25741;DHT22;13592;50.838;4.412;2023-02-02T16:23:12;11.60;99.90
25741;DHT22;13592;50.838;4.412;2023-02-02T16:25:46;11.70;99.90
25741;DHT22;13592;50.838;4.412;2023-02-02T16:28:13;11.70;99.90
25741;DHT22;13592;50.838;4.412;2023-02-02T16:30:43;11.60;99.90
25741;DHT22;13592;50.838;4.412;2023-02-02T16:35:56;11.60;99.90
25741;DHT22;13592;50.838;4.412;2023-02-02T16:43:39;11.40;99.90
25741;DHT22;13592;50.838;4.412;2023-02-02T16:49:01;11.30;99.90
25741;DHT22;13592;50.838;4.412;2023-02-02T16:51:29;11.30;99.90
25741;DHT22;13592;50.838;4.412;2023-02-02T16:56:36;11.20;99.90
25741;DHT22;13592;50.838;4.412;2023-02-02T16:59:04;11.30;99.90
25741;DHT22;13592;50.838;4.412;2023-02-02T17:01:33;11.40;99.90
25741;DHT22;13592;50.838;4.412;2023-02-02T17:07:09;11.50;99.90
25741;DHT22;13592;50.838;4.412;2023-02-02T17:09:38;11.50;99.90
25741;DHT22;13592;50.838;4.412;2023-02-02T17:12:19;11.40;99.90
25741;DHT22;13592;50.838;4.412;2023-02-02T17:17:14;11.30;99.90
25741;DHT22;13592;50.838;4.412;2023-02-02T17:19:41;11.30;99.90
25741;DHT22;13592;50.838;4.412;2023-02-02T17:22:10;11.40;99.90
25741;DHT22;13592;50.838;4.412;2023-02-02T17:24:36;11.40;99.90
25741;DHT22;13592;50.838;4.412;2023-02-02T17:27:10;11.50;99.90
25741;DHT22;13592;50.838;4.412;2023-02-02T17:29:38;11.30;99.90
25741;DHT22;13592;50.838;4.412;2023-02-02T17:32:04;11.30;99.90
25741;DHT22;13592;50.838;4.412;2023-02-02T17:34:29;11.30;99.90
25741;DHT22;13592;50.838;4.412;2023-02-02T17:36:55;11.30;99.90
25741;DHT22;13592;50.838;4.412;2023-02-02T17:39:25;11.20;99.90
25741;DHT22;13592;50.838;4.412;2023-02-02T17:41:52;11.20;99.90
25741;DHT22;13592;50.838;4.412;2023-02-02T17:44:21;11.30;99.90
25741;DHT22;13592;50.838;4.412;2023-02-02T17:46:46;11.20;99.90
25741;DHT22;13592;50.838;4.412;2023-02-02T17:52:15;11.10;99.90
25741;DHT22;13592;50.838;4.412;2023-02-02T17:54:47;11.10;99.90
25741;DHT22;13592;50.838;4.412;2023-02-02T17:57:15;11.20;99.90
25741;DHT22;13592;50.838;4.412;2023-02-02T17:59:44;11.20;99.90
25741;DHT22;13592;50.838;4.412;2023-02-02T18:02:11;11.30;99.90
25741;DHT22;13592;50.838;4.412;2023-02-02T18:04:41;11.20;99.90
25741;DHT22;13592;50.838;4.412;2023-02-02T18:07:08;11.10;99.90
25741;DHT22;13592;50.838;4.412;2023-02-02T18:09:39;11.20;99.90
25741;DHT22;13592;50.838;4.412;2023-02-02T18:12:14;11.10;99.90
25741;DHT22;13592;50.838;4.412;2023-02-02T18:14:40;11.10;99.90
25741;DHT22;13592;50.838;4.412;2023-02-02T18:17:06;11.20;99.90
25741;DHT22;13592;50.838;4.412;2023-02-02T18:22:06;10.90;99.90
25741;DHT22;13592;50.838;4.412;2023-02-02T18:24:32;11.00;99.90
25741;DHT22;13592;50.838;4.412;2023-02-02T18:26:57;11.10;99.90
25741;DHT22;13592;50.838;4.412;2023-02-02T18:29:24;11.30;99.90
25741;DHT22;13592;50.838;4.412;2023-02-02T18:31:49;11.40;99.90
25741;DHT22;13592;50.838;4.412;2023-02-02T18:34:17;11.30;99.90
25741;DHT22;13592;50.838;4.412;2023-02-02T18:36:47;11.10;99.90
25741;DHT22;13592;50.838;4.412;2023-02-02T18:39:18;10.90;99.90
25741;DHT22;13592;50.838;4.412;2023-02-02T18:44:16;10.80;99.90
25741;DHT22;13592;50.838;4.412;2023-02-02T18:46:43;11.00;99.90
25741;DHT22;13592;50.838;4.412;2023-02-02T18:49:09;11.20;99.90
25741;DHT22;13592;50.838;4.412;2023-02-02T18:51:34;11.40;99.90
25741;DHT22;13592;50.838;4.412;2023-02-02T18:54:00;11.30;99.90
25741;DHT22;13592;50.838;4.412;2023-02-02T18:56:32;11.20;99.90
25741;DHT22;13592;50.838;4.412;2023-02-02T18:58:58;11.10;99.90
25741;DHT22;13592;50.838;4.412;2023-02-02T19:01:24;11.20;99.90
25741;DHT22;13592;50.838;4.412;2023-02-02T19:03:52;11.10;99.90
25741;DHT22;13592;50.838;4.412;2023-02-02T19:06:21;11.10;99.90
25741;DHT22;13592;50.838;4.412;2023-02-02T19:09:05;11.10;99.90
25741;DHT22;13592;50.838;4.412;2023-02-02T19:14:15;11.00;99.90
25741;DHT22;13592;50.838;4.412;2023-02-02T19:16:49;10.90;99.90
25741;DHT22;13592;50.838;4.412;2023-02-02T19:19:27;10.70;99.90
25741;DHT22;13592;50.838;4.412;2023-02-02T19:21:56;10.90;99.90
25741;DHT22;13592;50.838;4.412;2023-02-02T19:24:30;10.80;99.90
25741;DHT22;13592;50.838;4.412;2023-02-02T19:26:59;10.80;99.90
25741;DHT22;13592;50.838;4.412;2023-02-02T19:29:29;10.90;99.90
25741;DHT22;13592;50.838;4.412;2023-02-02T19:32:07;10.90;99.90
25741;DHT22;13592;50.838;4.412;2023-02-02T19:37:21;10.90;99.90
25741;DHT22;13592;50.838;4.412;2023-02-02T19:42:16;11.00;99.90
25741;DHT22;13592;50.838;4.412;2023-02-02T19:44:42;11.10;99.90
25741;DHT22;13592;50.838;4.412;2023-02-02T19:49:57;10.90;99.90
25741;DHT22;13592;50.838;4.412;2023-02-02T19:52:25;10.90;99.90
25741;DHT22;13592;50.838;4.412;2023-02-02T19:54:51;10.90;99.90
25741;DHT22;13592;50.838;4.412;2023-02-02T19:57:33;11.00;99.90
25741;DHT22;13592;50.838;4.412;2023-02-02T20:05:59;11.10;99.90
25741;DHT22;13592;50.838;4.412;2023-02-02T20:08:41;11.10;99.90
25741;DHT22;13592;50.838;4.412;2023-02-02T20:11:25;11.30;99.90